createdAt,value
2022-11-09T00:00:01.007Z,69.39
2022-11-09T00:02:28.412Z,69.65
2022-11-09T00:04:55.368Z,68.98
2022-11-09T00:07:22.625Z,68.91
2022-11-09T00:09:49.761Z,68.57
2022-11-09T00:12:18.557Z,68.57
2022-11-09T00:14:45.671Z,68.70
2022-11-09T00:17:12.815Z,68.53
2022-11-09T00:19:39.806Z,68.17
2022-11-09T00:22:06.748Z,67.53
2022-11-09T00:24:33.853Z,67.73
2022-11-09T00:27:00.831Z,67.79
2022-11-09T00:29:30.600Z,67.43
2022-11-09T00:31:57.587Z,67.60
2022-11-09T00:34:25.138Z,67.67
2022-11-09T00:36:52.298Z,67.24
2022-11-09T00:39:19.483Z,67.40
2022-11-09T00:41:46.601Z,67.86
2022-11-09T00:44:13.784Z,67.89
2022-11-09T00:46:42.521Z,68.57
2022-11-09T00:49:09.413Z,67.14
2022-11-09T00:51:36.433Z,67.31
2022-11-09T00:54:04.129Z,68.08
2022-11-09T00:56:31.427Z,67.09
2022-11-09T00:58:58.477Z,66.97
2022-11-09T01:01:26.707Z,67.43
2022-11-09T01:03:55.122Z,67.32
2022-11-09T01:06:25.239Z,67.83
2022-11-09T01:08:53.422Z,67.87
2022-11-09T01:11:22.696Z,68.09
2022-11-09T01:13:53.256Z,68.30
2022-11-09T01:16:23.100Z,68.79
2022-11-09T01:18:55.267Z,68.59
2022-11-09T01:21:25.988Z,68.40
2022-11-09T01:23:53.056Z,67.23
2022-11-09T01:26:20.279Z,66.34
2022-11-09T01:28:48.136Z,65.80
2022-11-09T01:31:17.771Z,65.94
2022-11-09T01:33:45.357Z,67.09
2022-11-09T01:36:17.442Z,67.66
2022-11-09T01:38:44.817Z,67.99
2022-11-09T01:41:15.605Z,67.74
2022-11-09T01:43:42.897Z,68.34
2022-11-09T01:46:20.604Z,68.40
2022-11-09T01:48:53.556Z,68.77
2022-11-09T01:51:27.820Z,69.02
2022-11-09T01:54:02.717Z,68.90
2022-11-09T01:56:32.994Z,68.87
2022-11-09T01:59:05.392Z,68.81
2022-11-09T02:01:35.461Z,70.41
2022-11-09T02:04:10.817Z,70.72
2022-11-09T02:06:39.600Z,71.28
2022-11-09T02:09:16.351Z,71.11
2022-11-09T02:11:43.746Z,70.57
2022-11-09T02:14:13.059Z,71.77
2022-11-09T02:16:41.890Z,71.93
2022-11-09T02:19:08.859Z,71.07
2022-11-09T02:21:37.994Z,71.72
2022-11-09T02:24:06.724Z,72.96
2022-11-09T02:26:41.394Z,73.34
2022-11-09T02:29:14.041Z,73.36
2022-11-09T02:31:53.303Z,73.14
2022-11-09T02:34:23.516Z,73.53
2022-11-09T02:36:52.397Z,73.67
2022-11-09T02:39:26.864Z,73.32
2022-11-09T02:42:02.731Z,73.70
2022-11-09T02:44:39.640Z,75.07
2022-11-09T02:47:08.016Z,75.09
2022-11-09T02:49:34.935Z,75.33
2022-11-09T02:52:03.760Z,75.70
2022-11-09T02:54:30.561Z,76.24
2022-11-09T02:56:59.195Z,77.41
2022-11-09T02:59:26.937Z,78.89
2022-11-09T03:01:53.882Z,79.53
2022-11-09T03:04:21.649Z,78.22
2022-11-09T03:06:48.651Z,79.35
2022-11-09T03:09:20.107Z,79.15
2022-11-09T03:11:47.018Z,79.52
2022-11-09T03:14:15.958Z,80.52
2022-11-09T03:16:50.722Z,80.82
2022-11-09T03:19:18.464Z,82.93
2022-11-09T03:21:47.177Z,82.71
2022-11-09T03:24:14.443Z,83.76
2022-11-09T03:26:43.616Z,85.08
2022-11-09T03:29:10.660Z,84.35
2022-11-09T03:31:37.586Z,83.84
2022-11-09T03:34:08.039Z,84.91
2022-11-09T03:36:35.782Z,85.73
2022-11-09T03:39:03.358Z,86.03
2022-11-09T03:41:31.977Z,85.65
2022-11-09T03:44:00.593Z,85.86
2022-11-09T03:46:27.576Z,87.47
2022-11-09T03:48:54.452Z,87.62
2022-11-09T03:51:21.463Z,87.49
2022-11-09T03:54:39.109Z,87.45
2022-11-09T03:57:06.364Z,86.69
2022-11-09T03:59:34.780Z,86.69
2022-11-09T04:02:01.677Z,87.04
2022-11-09T04:04:29.031Z,87.89
2022-11-09T04:06:56.071Z,87.13
2022-11-09T04:09:22.986Z,88.97
2022-11-09T04:11:50.103Z,89.40
2022-11-09T04:14:17.267Z,89.11
2022-11-09T04:16:45.550Z,90.34
2022-11-09T04:19:12.595Z,91.03
2022-11-09T04:21:39.644Z,90.40
2022-11-09T04:24:06.834Z,89.97
2022-11-09T04:26:33.628Z,90.56
2022-11-09T04:29:00.603Z,92.05
2022-11-09T04:31:28.364Z,92.90
2022-11-09T04:33:56.624Z,92.25
2022-11-09T04:36:23.742Z,92.67
2022-11-09T04:38:50.656Z,92.51
2022-11-09T04:41:17.855Z,92.55
2022-11-09T04:43:44.730Z,93.10
2022-11-09T04:46:11.671Z,92.43
2022-11-09T04:48:38.499Z,93.01
2022-11-09T04:51:10.781Z,93.59
2022-11-09T04:53:38.925Z,93.44
2022-11-09T04:56:07.929Z,93.93
2022-11-09T04:58:35.371Z,94.56
2022-11-09T05:01:05.088Z,94.45
2022-11-09T05:04:57.317Z,94.74
2022-11-09T05:07:26.154Z,94.68
2022-11-09T05:17:38.349Z,95.67
2022-11-09T05:20:06.486Z,95.82
2022-11-09T05:22:44.795Z,95.31
2022-11-09T05:25:24.468Z,94.96
2022-11-09T05:28:10.581Z,94.46
2022-11-09T05:30:38.075Z,95.21
2022-11-09T05:33:05.701Z,95.35
2022-11-09T05:35:37.754Z,95.10
2022-11-09T05:38:08.487Z,95.46
2022-11-09T05:41:09.216Z,95.19
2022-11-09T05:43:44.797Z,95.95
2022-11-09T05:46:29.717Z,95.32
2022-11-09T05:49:34.090Z,95.52
2022-11-09T05:52:05.542Z,95.02
2022-11-09T05:55:26.194Z,95.80
2022-11-09T05:58:28.904Z,95.35
2022-11-09T06:01:23.595Z,95.40
2022-11-09T06:04:37.282Z,95.03
2022-11-09T06:07:00.098Z,95.09
2022-11-09T06:09:31.438Z,95.36
2022-11-09T06:12:59.786Z,95.23
2022-11-09T06:15:32.875Z,94.87
2022-11-09T06:19:16.043Z,95.62
2022-11-09T06:22:31.171Z,95.45
2022-11-09T06:25:22.990Z,96.06
2022-11-09T06:28:14.215Z,95.62
2022-11-09T06:30:41.758Z,95.75
2022-11-09T06:33:08.656Z,94.86
2022-11-09T06:35:35.562Z,94.29
2022-11-09T06:38:03.920Z,94.58
2022-11-09T06:40:32.764Z,94.66
2022-11-09T06:43:00.961Z,94.91
2022-11-09T06:45:30.452Z,94.31
2022-11-09T06:47:58.935Z,94.81
2022-11-09T06:50:28.840Z,94.69
2022-11-09T06:52:57.301Z,95.08
2022-11-09T06:55:30.780Z,95.24
2022-11-09T06:58:09.882Z,96.28
2022-11-09T07:00:46.841Z,95.98
2022-11-09T07:03:15.188Z,96.45
2022-11-09T07:05:51.626Z,96.65
2022-11-09T07:08:50.243Z,96.54
2022-11-09T07:11:27.483Z,95.75
2022-11-09T07:14:03.658Z,96.81
2022-11-09T07:16:31.929Z,96.63
2022-11-09T07:19:06.073Z,96.82
2022-11-09T07:21:40.735Z,96.81
2022-11-09T07:24:18.673Z,96.91
2022-11-09T07:26:52.774Z,96.76
2022-11-09T07:29:24.430Z,96.53
2022-11-09T07:31:54.300Z,96.80
2022-11-09T07:34:27.736Z,96.21
2022-11-09T07:37:17.517Z,96.23
2022-11-09T07:39:49.057Z,95.62
2022-11-09T07:42:18.577Z,95.47
2022-11-09T07:44:49.003Z,95.39
2022-11-09T07:47:20.430Z,95.49
2022-11-09T07:49:51.768Z,95.93
2022-11-09T07:52:25.367Z,95.45
2022-11-09T07:54:55.226Z,95.37
2022-11-09T07:57:29.643Z,94.86
2022-11-09T08:04:51.440Z,95.72
2022-11-09T08:07:22.979Z,96.18
2022-11-09T08:10:15.488Z,95.04
2022-11-09T08:18:32.675Z,94.79
2022-11-09T08:23:55.386Z,94.77
2022-11-09T08:26:56.068Z,94.36
2022-11-09T08:29:32.831Z,93.83
2022-11-09T08:32:00.253Z,94.13
2022-11-09T08:34:27.269Z,94.24
2022-11-09T08:37:10.708Z,93.12
2022-11-09T08:39:37.988Z,93.89
2022-11-09T08:42:13.769Z,93.73
2022-11-09T08:44:40.879Z,93.03
2022-11-09T08:47:18.464Z,92.80
2022-11-09T08:49:48.026Z,93.08
2022-11-09T08:52:27.001Z,93.08
2022-11-09T08:54:57.005Z,93.28
2022-11-09T09:00:21.601Z,92.79
2022-11-09T09:03:04.650Z,92.56
2022-11-09T09:05:32.361Z,93.04
2022-11-09T09:08:00.687Z,92.90
2022-11-09T09:10:30.962Z,92.53
2022-11-09T09:12:58.357Z,92.59
2022-11-09T09:16:59.860Z,92.62
2022-11-09T09:19:56.845Z,91.94
2022-11-09T09:22:36.402Z,92.59
2022-11-09T10:48:53.485Z,82.72
2022-11-09T10:51:45.020Z,83.17
2022-11-09T10:54:49.783Z,83.77
2022-11-09T11:01:18.401Z,83.67
2022-11-09T11:09:32.695Z,83.46
2022-11-09T11:12:30.602Z,83.29
2022-11-09T11:15:24.225Z,83.99
2022-11-09T11:18:22.037Z,84.02
2022-11-09T11:21:18.767Z,83.28
2022-11-09T11:24:16.894Z,83.40
2022-11-09T11:27:22.289Z,83.05
2022-11-09T11:33:57.253Z,83.51
2022-11-09T11:37:03.980Z,83.78
2022-11-09T11:40:02.173Z,83.77
2022-11-09T11:43:18.307Z,83.72
2022-11-09T11:46:17.993Z,83.98
2022-11-09T11:49:37.066Z,83.60
2022-11-09T11:52:46.146Z,83.63
2022-11-09T11:55:58.118Z,83.71
2022-11-09T11:59:19.164Z,83.50
2022-11-09T12:02:53.283Z,83.76
2022-11-09T12:06:09.424Z,83.40
2022-11-09T12:09:15.010Z,83.33
2022-11-09T12:12:17.044Z,83.26
2022-11-09T12:15:23.911Z,83.41
2022-11-09T12:18:32.054Z,83.11
2022-11-09T12:21:35.478Z,83.61
2022-11-09T12:24:52.939Z,83.55
2022-11-09T12:28:13.582Z,83.78
2022-11-09T12:31:23.884Z,83.69
2022-11-09T12:34:24.929Z,83.22
2022-11-09T12:37:26.319Z,84.31
2022-11-09T12:40:29.603Z,84.50
2022-11-09T12:47:42.541Z,84.43
2022-11-09T12:50:57.911Z,84.25
2022-11-09T12:54:53.691Z,84.42
2022-11-09T12:58:01.171Z,83.81
2022-11-09T13:01:11.644Z,84.04
2022-11-09T13:04:21.683Z,83.94
2022-11-09T13:07:32.988Z,83.59
2022-11-09T13:10:42.156Z,82.92
2022-11-09T13:13:30.956Z,82.32
2022-11-09T13:17:25.390Z,81.46
2022-11-09T13:20:01.141Z,82.09
2022-11-09T13:23:04.348Z,82.44
2022-11-09T13:26:24.499Z,82.26
2022-11-09T13:30:00.914Z,82.74
2022-11-09T13:34:00.518Z,83.28
2022-11-09T13:37:57.207Z,83.25
2022-11-09T13:40:47.430Z,84.01
2022-11-09T13:57:46.671Z,86.26
2022-11-09T14:43:27.702Z,89.23
2022-11-09T14:50:24.228Z,89.09
2022-11-09T14:53:17.993Z,89.46
2022-11-09T14:56:54.685Z,89.48
2022-11-09T15:05:29.698Z,89.64
2022-11-09T15:08:28.936Z,89.68
2022-11-09T15:18:14.242Z,89.48
2022-11-09T15:20:29.631Z,89.83
2022-11-09T15:23:35.860Z,90.21
2022-11-09T15:26:36.346Z,91.19
2022-11-09T15:48:37.131Z,89.11
2022-11-09T15:51:40.156Z,88.40
2022-11-09T16:01:05.199Z,86.50
2022-11-09T16:26:20.388Z,87.49
2022-11-09T16:29:07.475Z,88.56
2022-11-09T16:31:53.597Z,89.83
2022-11-09T16:34:38.754Z,90.30
2022-11-09T16:37:24.284Z,90.70
2022-11-09T16:40:15.799Z,91.33
2022-11-09T16:43:03.910Z,90.90
2022-11-09T16:45:50.465Z,90.69
2022-11-09T16:48:36.562Z,90.33
2022-11-09T16:51:22.582Z,90.15
2022-11-09T16:54:15.949Z,89.98
2022-11-09T16:57:01.505Z,90.05
2022-11-09T16:59:50.228Z,90.05
2022-11-09T17:02:35.853Z,89.94
2022-11-09T17:05:21.676Z,89.98
2022-11-09T17:08:09.666Z,89.59
2022-11-09T17:10:55.509Z,89.88
2022-11-09T17:13:41.854Z,89.59
2022-11-09T17:16:33.772Z,89.59
2022-11-09T17:19:26.230Z,89.47
2022-11-09T17:22:22.041Z,89.68
2022-11-09T17:25:09.720Z,91.64
2022-11-09T17:27:55.753Z,93.10
2022-11-09T17:30:41.945Z,93.20
2022-11-09T17:33:28.956Z,93.35
2022-11-09T17:36:41.513Z,93.13
2022-11-09T17:39:30.022Z,92.77
2022-11-09T17:42:16.082Z,92.91
2022-11-09T17:45:02.349Z,92.53
2022-11-09T17:47:48.599Z,91.58
2022-11-09T17:50:37.508Z,91.60
2022-11-09T17:53:57.576Z,91.60
2022-11-09T17:57:14.223Z,91.73
2022-11-09T18:00:15.399Z,91.68
2022-11-09T18:03:05.169Z,91.52
2022-11-09T18:06:14.360Z,91.95
2022-11-09T18:09:38.994Z,91.35
2022-11-09T18:28:50.546Z,93.81
2022-11-09T18:31:46.438Z,93.43
2022-11-09T18:34:32.576Z,93.54
2022-11-09T18:40:08.549Z,92.97
2022-11-09T18:42:54.648Z,93.00
2022-11-09T18:45:41.639Z,92.44
2022-11-09T18:48:28.350Z,92.54
2022-11-09T18:51:19.119Z,92.11
2022-11-09T18:54:04.938Z,91.85
2022-11-09T18:56:52.240Z,92.04
2022-11-09T18:59:37.818Z,92.33
2022-11-09T19:02:24.982Z,92.29
2022-11-09T19:05:10.551Z,92.56
2022-11-09T19:07:56.248Z,92.19
2022-11-09T19:10:41.687Z,92.05
2022-11-09T19:13:27.013Z,92.25
2022-11-09T19:16:14.406Z,92.08
2022-11-09T19:19:02.075Z,92.16
2022-11-09T19:21:50.358Z,91.71
2022-11-09T19:24:36.308Z,91.61
2022-11-09T19:27:22.424Z,91.82
2022-11-09T19:30:10.066Z,90.50
2022-11-09T19:32:55.669Z,89.00
2022-11-09T19:35:43.091Z,88.94
2022-11-09T19:38:28.568Z,89.23
2022-11-09T19:41:13.993Z,89.32
2022-11-09T19:43:59.582Z,89.53
2022-11-09T19:46:45.702Z,89.72
2022-11-09T19:49:31.751Z,89.65
2022-11-09T19:52:18.698Z,89.67
2022-11-09T19:55:05.168Z,89.41
2022-11-09T19:57:51.242Z,89.74
2022-11-09T20:00:37.103Z,90.07
2022-11-09T20:03:22.472Z,90.22
2022-11-09T20:06:10.174Z,90.26
2022-11-09T20:09:01.551Z,90.45
2022-11-09T20:11:47.592Z,90.88
2022-11-09T20:14:33.947Z,90.34
2022-11-09T20:17:21.986Z,90.55
2022-11-09T20:20:15.703Z,90.88
2022-11-09T20:23:01.563Z,90.42
2022-11-09T20:25:50.082Z,90.76
2022-11-09T20:28:36.357Z,91.43
2022-11-09T20:31:26.681Z,92.10
2022-11-09T20:34:12.832Z,92.41
2022-11-09T20:37:15.503Z,93.28
2022-11-09T20:40:01.181Z,93.58
2022-11-09T20:42:48.433Z,93.86
2022-11-09T20:45:36.038Z,93.30
2022-11-09T20:48:51.916Z,93.16
2022-11-09T20:51:30.281Z,92.96
2022-11-09T20:54:15.596Z,93.17
2022-11-09T20:57:01.553Z,93.29
2022-11-09T20:59:54.150Z,93.25
2022-11-09T21:02:40.590Z,93.11
2022-11-09T21:05:26.294Z,93.04
2022-11-09T21:08:13.756Z,93.30
2022-11-09T21:11:00.980Z,92.90
2022-11-09T21:13:49.413Z,92.91
2022-11-09T21:16:36.941Z,92.73
2022-11-09T21:19:22.870Z,92.35
2022-11-09T21:22:09.052Z,92.01
2022-11-09T21:24:57.403Z,91.63
2022-11-09T21:27:47.845Z,91.76
2022-11-09T21:30:34.508Z,91.76
2022-11-09T21:33:22.202Z,91.98
2022-11-09T21:36:09.960Z,92.05
2022-11-09T21:38:55.795Z,91.87
2022-11-09T21:41:42.079Z,91.71
2022-11-09T21:44:30.010Z,91.84
2022-11-09T21:47:19.164Z,91.34
2022-11-09T21:50:27.971Z,91.07
2022-11-09T21:53:13.850Z,91.39
2022-11-09T21:56:00.299Z,91.41
2022-11-09T21:58:48.799Z,90.89
2022-11-09T22:01:34.619Z,90.87
2022-11-09T22:04:20.765Z,91.10
2022-11-09T22:07:07.993Z,90.54
2022-11-09T22:10:10.787Z,90.42
2022-11-09T22:12:56.896Z,90.25
2022-11-09T22:15:50.448Z,90.05
2022-11-09T22:18:37.236Z,90.15
2022-11-09T22:21:23.880Z,89.78
2022-11-09T22:24:11.432Z,89.94
2022-11-09T22:26:57.346Z,89.86
2022-11-09T22:29:43.483Z,89.93
2022-11-09T22:32:28.940Z,90.06
2022-11-09T22:35:15.516Z,90.20
2022-11-09T22:38:02.312Z,90.12
2022-11-09T22:40:49.345Z,90.26
2022-11-09T22:43:37.703Z,90.50
2022-11-09T22:46:23.777Z,90.14
2022-11-09T22:49:09.175Z,90.52
2022-11-09T22:51:54.989Z,90.66
2022-11-09T22:54:40.723Z,91.09
2022-11-09T22:57:27.689Z,90.74
2022-11-09T23:00:15.664Z,90.77
2022-11-09T23:03:00.958Z,90.75
2022-11-09T23:05:47.234Z,90.62
2022-11-09T23:08:37.869Z,91.06
2022-11-09T23:11:27.722Z,91.42
2022-11-09T23:14:22.495Z,91.13
2022-11-09T23:17:10.881Z,91.47
2022-11-09T23:19:56.659Z,91.42
2022-11-09T23:22:42.051Z,91.70
2022-11-09T23:25:32.125Z,91.92
2022-11-09T23:28:18.666Z,91.71
2022-11-09T23:31:09.603Z,91.28
2022-11-09T23:33:57.722Z,91.33
2022-11-09T23:36:45.653Z,90.92
2022-11-09T23:39:35.146Z,90.48
2022-11-09T23:42:20.810Z,90.34
2022-11-09T23:45:07.143Z,90.20
2022-11-09T23:47:53.915Z,90.25
2022-11-09T23:50:40.068Z,89.78
2022-11-09T23:53:26.753Z,89.74
2022-11-09T23:56:12.983Z,89.93
2022-11-09T23:58:58.369Z,90.16
